createdAt,value
2023-05-02T00:00:48.388Z,0.00
2023-05-02T00:01:48.622Z,0.00
2023-05-02T00:02:48.838Z,0.00
2023-05-02T00:03:49.009Z,0.00
2023-05-02T00:04:49.115Z,0.00
2023-05-02T00:05:49.249Z,0.00
2023-05-02T00:06:49.470Z,0.00
2023-05-02T00:07:49.606Z,0.00
2023-05-02T00:08:49.797Z,0.00
2023-05-02T00:09:49.992Z,0.00
2023-05-02T00:10:50.161Z,0.00
2023-05-02T00:11:50.342Z,0.00
2023-05-02T00:12:50.488Z,0.00
2023-05-02T00:13:50.692Z,0.00
2023-05-02T00:14:50.859Z,0.00
2023-05-02T00:15:51.007Z,0.00
2023-05-02T00:16:51.262Z,0.00
2023-05-02T00:17:51.390Z,0.00
2023-05-02T00:18:51.523Z,0.00
2023-05-02T00:19:51.712Z,0.00
2023-05-02T00:20:51.856Z,0.00
2023-05-02T00:21:52.052Z,0.00
2023-05-02T00:22:52.223Z,0.00
2023-05-02T00:23:52.390Z,0.00
2023-05-02T00:24:52.558Z,0.00
2023-05-02T00:25:52.707Z,0.00
2023-05-02T00:26:52.899Z,0.00
2023-05-02T00:27:53.117Z,0.00
2023-05-02T00:28:53.224Z,0.00
2023-05-02T00:29:53.412Z,0.00
2023-05-02T00:30:53.688Z,0.00
2023-05-02T00:31:53.746Z,0.00
2023-05-02T00:32:53.939Z,0.00
2023-05-02T00:33:54.096Z,0.00
2023-05-02T00:34:54.244Z,0.00
2023-05-02T00:35:54.440Z,0.00
2023-05-02T00:36:54.618Z,0.00
2023-05-02T00:37:54.807Z,0.00
2023-05-02T00:38:54.972Z,0.00
2023-05-02T00:39:55.112Z,0.00
2023-05-02T00:40:55.293Z,0.00
2023-05-02T00:41:55.475Z,0.00
2023-05-02T00:42:55.651Z,0.00
2023-05-02T00:43:55.794Z,0.00
2023-05-02T00:44:55.976Z,0.00
2023-05-02T00:45:56.229Z,0.00
2023-05-02T00:46:56.575Z,0.00
2023-05-02T00:47:56.567Z,0.00
2023-05-02T00:48:56.696Z,0.00
2023-05-02T00:49:56.899Z,0.00
2023-05-02T00:50:57.062Z,0.00
2023-05-02T00:51:57.260Z,0.00
2023-05-02T00:52:57.392Z,0.00
2023-05-02T00:53:57.587Z,0.00
2023-05-02T00:54:57.785Z,0.00
2023-05-02T00:55:57.936Z,0.00
2023-05-02T00:56:58.110Z,0.00
2023-05-02T00:57:58.317Z,0.00
2023-05-02T00:58:58.446Z,0.00
2023-05-02T00:59:58.876Z,0.00
2023-05-02T01:00:58.777Z,0.00
2023-05-02T01:01:59.048Z,0.00
2023-05-02T01:02:59.231Z,0.00
2023-05-02T01:03:59.430Z,0.00
2023-05-02T01:04:59.502Z,0.00
2023-05-02T01:05:59.645Z,0.00
2023-05-02T01:06:59.837Z,0.00
2023-05-02T01:08:00.009Z,0.00
2023-05-02T01:09:00.166Z,0.00
2023-05-02T01:10:00.639Z,0.00
2023-05-02T01:11:00.505Z,0.00
2023-05-02T01:12:00.686Z,0.00
2023-05-02T01:13:00.853Z,0.00
2023-05-02T01:14:01.062Z,0.00
2023-05-02T01:15:01.179Z,0.00
2023-05-02T01:16:01.421Z,0.00
2023-05-02T01:17:01.512Z,0.00
2023-05-02T01:18:01.777Z,0.00
2023-05-02T01:19:01.870Z,0.00
2023-05-02T01:20:02.289Z,0.00
2023-05-02T01:21:02.211Z,0.00
2023-05-02T01:22:02.384Z,0.00
2023-05-02T01:23:02.588Z,0.00
2023-05-02T01:24:02.751Z,0.00
2023-05-02T01:25:02.931Z,0.00
2023-05-02T01:26:03.109Z,0.00
2023-05-02T01:27:03.251Z,0.00
2023-05-02T01:28:03.460Z,0.00
2023-05-02T01:29:03.638Z,0.00
2023-05-02T01:30:03.809Z,0.00
2023-05-02T01:31:03.940Z,0.00
2023-05-02T01:32:04.206Z,0.00
2023-05-02T01:33:04.338Z,0.00
2023-05-02T01:34:04.491Z,0.00
2023-05-02T01:35:04.660Z,0.00
2023-05-02T01:36:04.806Z,0.00
2023-05-02T01:37:04.981Z,0.00
2023-05-02T01:38:05.170Z,0.00
2023-05-02T01:39:05.356Z,0.00
2023-05-02T01:40:05.577Z,0.00
2023-05-02T01:41:05.704Z,0.00
2023-05-02T01:42:05.870Z,0.00
2023-05-02T01:43:06.061Z,0.00
2023-05-02T01:44:06.230Z,0.00
2023-05-02T01:45:06.365Z,0.00
2023-05-02T01:46:06.546Z,0.00
2023-05-02T01:47:06.792Z,0.00
2023-05-02T01:48:06.985Z,0.00
2023-05-02T01:49:07.077Z,0.00
2023-05-02T01:50:07.278Z,0.00
2023-05-02T01:51:07.464Z,0.00
2023-05-02T01:52:07.610Z,0.00
2023-05-02T01:53:07.752Z,0.00
2023-05-02T01:54:07.932Z,0.00
2023-05-02T01:55:08.139Z,0.00
2023-05-02T01:56:08.284Z,0.00
2023-05-02T01:57:08.469Z,0.00
2023-05-02T01:58:08.631Z,0.00
2023-05-02T01:59:08.798Z,0.00
2023-05-02T02:00:08.961Z,0.00
2023-05-02T02:01:09.218Z,0.00
2023-05-02T02:02:09.337Z,0.00
2023-05-02T02:03:09.588Z,0.00
2023-05-02T02:04:09.697Z,0.00
2023-05-02T02:05:09.834Z,0.00
2023-05-02T02:06:10.042Z,0.00
2023-05-02T02:07:10.176Z,0.00
2023-05-02T02:08:10.356Z,0.00
2023-05-02T02:09:10.552Z,0.00
2023-05-02T02:10:10.722Z,0.00
2023-05-02T02:11:10.949Z,0.00
2023-05-02T02:12:11.088Z,0.00
2023-05-02T02:13:11.319Z,0.00
2023-05-02T02:14:11.437Z,0.00
2023-05-02T02:15:11.633Z,0.00
2023-05-02T02:16:11.806Z,0.00
2023-05-02T02:17:11.977Z,0.00
2023-05-02T02:18:12.204Z,0.00
2023-05-02T02:19:12.335Z,0.00
2023-05-02T02:20:12.492Z,0.00
2023-05-02T02:21:12.695Z,0.00
2023-05-02T02:22:12.838Z,0.00
2023-05-02T02:23:13.058Z,0.00
2023-05-02T02:24:13.175Z,0.00
2023-05-02T02:25:13.381Z,0.00
2023-05-02T02:26:13.525Z,0.00
2023-05-02T02:27:13.735Z,0.00
2023-05-02T02:28:13.864Z,0.00
2023-05-02T02:29:14.055Z,0.00
2023-05-02T02:30:14.228Z,0.00
2023-05-02T02:31:14.420Z,0.00
2023-05-02T02:32:14.523Z,0.00
2023-05-02T02:33:14.719Z,0.00
2023-05-02T02:34:14.895Z,0.00
2023-05-02T02:35:15.099Z,0.00
2023-05-02T02:36:15.265Z,0.00
2023-05-02T02:37:15.410Z,0.00
2023-05-02T02:38:15.584Z,0.00
2023-05-02T02:39:15.778Z,0.00
2023-05-02T02:40:15.923Z,0.00
2023-05-02T02:41:16.104Z,0.00
2023-05-02T02:42:16.282Z,0.00
2023-05-02T02:43:16.474Z,0.00
2023-05-02T02:44:16.685Z,0.00
2023-05-02T02:45:16.852Z,0.00
2023-05-02T02:46:17.087Z,0.00
2023-05-02T02:47:17.192Z,0.00
2023-05-02T02:48:17.373Z,0.00
2023-05-02T02:49:17.514Z,0.00
2023-05-02T02:50:17.671Z,0.00
2023-05-02T02:51:17.844Z,0.00
2023-05-02T02:52:18.006Z,0.00
2023-05-02T02:53:18.225Z,0.00
2023-05-02T02:54:26.552Z,0.00
2023-05-02T02:55:19.549Z,0.00
2023-05-02T02:56:18.749Z,0.00
2023-05-02T02:57:18.914Z,0.00
2023-05-02T02:58:19.053Z,0.00
2023-05-02T02:59:19.268Z,0.00
2023-05-02T03:00:19.385Z,0.00
2023-05-02T03:01:19.590Z,0.00
2023-05-02T03:02:19.745Z,0.00
2023-05-02T03:03:20.047Z,0.00
2023-05-02T03:04:20.183Z,0.00
2023-05-02T03:05:20.264Z,0.00
2023-05-02T03:06:20.493Z,0.00
2023-05-02T03:07:20.627Z,0.00
2023-05-02T03:08:20.824Z,0.00
2023-05-02T03:09:20.980Z,0.00
2023-05-02T03:10:21.128Z,0.00
2023-05-02T03:11:21.316Z,0.00
2023-05-02T03:12:21.487Z,0.00
2023-05-02T03:13:21.707Z,0.00
2023-05-02T03:14:21.858Z,0.00
2023-05-02T03:15:22.028Z,0.00
2023-05-02T03:16:22.332Z,0.00
2023-05-02T03:17:24.239Z,0.00
2023-05-02T03:18:22.594Z,0.00
2023-05-02T03:19:22.740Z,0.00
2023-05-02T03:20:22.940Z,0.00
2023-05-02T03:21:23.109Z,0.00
2023-05-02T03:22:23.317Z,0.00
2023-05-02T03:23:23.476Z,0.00
2023-05-02T03:24:23.650Z,0.00
2023-05-02T03:25:23.794Z,0.00
2023-05-02T03:26:23.952Z,0.00
2023-05-02T03:27:24.156Z,0.00
2023-05-02T03:28:24.301Z,0.00
2023-05-02T03:29:24.461Z,0.00
2023-05-02T03:30:24.604Z,0.00
2023-05-02T03:31:26.391Z,0.00
2023-05-02T03:32:25.006Z,0.00
2023-05-02T03:33:25.158Z,0.00
2023-05-02T03:34:25.311Z,0.00
2023-05-02T03:35:25.494Z,0.00
2023-05-02T03:36:25.680Z,0.00
2023-05-02T03:37:25.868Z,0.00
2023-05-02T03:38:26.023Z,0.00
2023-05-02T03:39:26.216Z,0.00
2023-05-02T03:40:26.372Z,0.00
2023-05-02T03:41:26.550Z,0.00
2023-05-02T03:42:26.718Z,0.00
2023-05-02T03:43:26.895Z,0.00
2023-05-02T03:44:27.069Z,0.00
2023-05-02T03:45:27.234Z,0.00
2023-05-02T03:46:27.438Z,0.00
2023-05-02T03:47:27.609Z,0.00
2023-05-02T03:48:27.731Z,0.00
2023-05-02T03:49:27.891Z,0.00
2023-05-02T03:50:28.084Z,0.00
2023-05-02T03:51:28.247Z,0.00
2023-05-02T03:52:28.412Z,0.00
2023-05-02T03:53:28.590Z,0.00
2023-05-02T03:54:28.785Z,0.00
2023-05-02T03:55:28.945Z,0.00
2023-05-02T03:56:29.118Z,0.00
2023-05-02T03:57:29.292Z,0.00
2023-05-02T03:58:29.452Z,0.00
2023-05-02T03:59:29.625Z,0.00
2023-05-02T04:00:29.798Z,0.00
2023-05-02T04:01:29.966Z,0.00
2023-05-02T04:02:30.299Z,0.00
2023-05-02T04:03:30.476Z,0.00
2023-05-02T04:04:30.584Z,0.00
2023-05-02T04:05:30.664Z,0.00
2023-05-02T04:06:30.859Z,0.00
2023-05-02T04:07:31.014Z,0.00
2023-05-02T04:08:31.212Z,0.00
2023-05-02T04:09:31.359Z,0.00
2023-05-02T04:10:31.550Z,0.00
2023-05-02T04:11:31.718Z,0.00
2023-05-02T04:12:31.890Z,0.00
2023-05-02T04:13:32.069Z,0.00
2023-05-02T04:14:32.207Z,0.00
2023-05-02T04:15:32.372Z,0.00
2023-05-02T04:16:32.608Z,0.00
2023-05-02T04:17:32.809Z,0.00
2023-05-02T04:18:32.898Z,0.00
2023-05-02T04:19:33.072Z,0.00
2023-05-02T04:20:33.237Z,0.00
2023-05-02T04:21:33.399Z,5.62
2023-05-02T04:22:33.567Z,5.62
2023-05-02T04:23:33.754Z,5.62
2023-05-02T04:24:33.921Z,5.62
2023-05-02T04:25:34.101Z,5.62
2023-05-02T04:26:34.281Z,5.62
2023-05-02T04:27:34.452Z,5.62
2023-05-02T04:28:34.624Z,5.62
2023-05-02T04:29:34.810Z,5.62
2023-05-02T04:30:34.970Z,5.62
2023-05-02T04:31:35.191Z,5.62
2023-05-02T04:32:35.363Z,5.62
2023-05-02T04:33:35.504Z,5.62
2023-05-02T04:34:35.633Z,5.62
2023-05-02T04:35:35.803Z,5.62
2023-05-02T04:36:35.974Z,5.62
2023-05-02T04:37:36.169Z,5.62
2023-05-02T04:38:36.360Z,5.62
2023-05-02T04:39:36.507Z,5.62
2023-05-02T04:40:36.659Z,5.62
2023-05-02T04:41:36.855Z,5.62
2023-05-02T04:42:36.996Z,5.62
2023-05-02T04:43:37.197Z,5.62
2023-05-02T04:44:37.366Z,5.62
2023-05-02T04:45:37.610Z,5.62
2023-05-02T04:46:37.810Z,5.62
2023-05-02T04:47:37.883Z,5.62
2023-05-02T04:48:38.072Z,5.62
2023-05-02T04:49:38.207Z,5.62
2023-05-02T04:50:38.384Z,5.62
2023-05-02T04:51:38.593Z,5.62
2023-05-02T04:52:38.726Z,5.62
2023-05-02T04:53:38.951Z,5.62
2023-05-02T04:54:39.112Z,5.62
2023-05-02T04:55:39.272Z,5.62
2023-05-02T04:56:39.438Z,11.25
2023-05-02T04:57:39.622Z,11.25
2023-05-02T04:58:39.792Z,11.25
2023-05-02T04:59:39.965Z,11.25
2023-05-02T05:00:40.108Z,11.25
2023-05-02T05:01:40.326Z,11.25
2023-05-02T05:02:40.493Z,11.25
2023-05-02T05:03:40.762Z,11.25
2023-05-02T05:04:40.790Z,11.25
2023-05-02T05:05:41.111Z,11.25
2023-05-02T05:06:41.191Z,11.25
2023-05-02T05:07:41.330Z,11.25
2023-05-02T05:08:41.515Z,11.25
2023-05-02T05:09:41.667Z,11.25
2023-05-02T05:10:41.848Z,11.25
2023-05-02T05:11:42.014Z,11.25
2023-05-02T05:12:42.198Z,11.25
2023-05-02T05:13:42.364Z,16.88
2023-05-02T05:14:42.530Z,16.88
2023-05-02T05:15:42.728Z,16.88
2023-05-02T05:16:42.886Z,16.88
2023-05-02T05:17:43.120Z,16.88
2023-05-02T05:18:43.191Z,16.88
2023-05-02T05:19:43.367Z,16.88
2023-05-02T05:20:43.518Z,16.88
2023-05-02T05:21:43.689Z,16.88
2023-05-02T05:22:43.868Z,16.88
2023-05-02T05:23:44.039Z,16.88
2023-05-02T05:24:44.200Z,16.88
2023-05-02T05:25:45.881Z,16.88
2023-05-02T05:26:44.511Z,16.88
2023-05-02T05:27:44.733Z,16.88
2023-05-02T05:28:44.891Z,16.88
2023-05-02T05:29:45.052Z,16.88
2023-05-02T05:30:45.224Z,16.88
2023-05-02T05:31:45.489Z,16.88
2023-05-02T05:32:45.619Z,16.88
2023-05-02T05:33:45.789Z,16.88
2023-05-02T05:34:45.905Z,16.88
2023-05-02T05:35:46.091Z,16.88
2023-05-02T05:36:46.247Z,16.88
2023-05-02T05:37:46.421Z,16.88
2023-05-02T05:38:46.613Z,16.88
2023-05-02T05:39:46.764Z,16.88
2023-05-02T05:40:46.939Z,16.88
2023-05-02T05:41:47.134Z,16.88
2023-05-02T05:42:47.312Z,16.88
2023-05-02T05:43:47.500Z,16.88
2023-05-02T05:44:47.650Z,16.88
2023-05-02T05:45:47.841Z,16.88
2023-05-02T05:46:47.987Z,16.88
2023-05-02T05:47:48.203Z,16.88
2023-05-02T05:48:48.308Z,16.88
2023-05-02T05:49:48.461Z,16.88
2023-05-02T05:50:48.623Z,16.88
2023-05-02T05:51:48.802Z,22.50
2023-05-02T05:52:48.974Z,22.50
2023-05-02T05:53:49.133Z,22.50
2023-05-02T05:54:49.288Z,22.50
2023-05-02T05:55:49.487Z,28.12
2023-05-02T05:56:49.624Z,28.12
2023-05-02T05:57:49.801Z,28.12
2023-05-02T05:58:49.970Z,28.12
2023-05-02T05:59:50.147Z,28.12
2023-05-02T06:00:50.319Z,33.75
2023-05-02T06:01:50.505Z,33.75
2023-05-02T06:02:50.744Z,33.75
2023-05-02T06:03:50.889Z,33.75
2023-05-02T06:04:51.023Z,33.75
2023-05-02T06:05:51.166Z,33.75
2023-05-02T06:06:51.465Z,33.75
2023-05-02T06:07:51.531Z,39.38
2023-05-02T06:08:51.690Z,39.38
2023-05-02T06:09:51.862Z,39.38
2023-05-02T06:10:52.012Z,45.00
2023-05-02T06:11:52.178Z,45.00
2023-05-02T06:12:52.362Z,45.00
2023-05-02T06:13:52.521Z,50.62
2023-05-02T06:14:52.695Z,50.62
2023-05-02T06:15:52.881Z,50.62
2023-05-02T06:16:53.014Z,50.62
2023-05-02T06:17:53.224Z,50.62
2023-05-02T06:18:53.380Z,50.62
2023-05-02T06:19:53.534Z,50.62
2023-05-02T06:20:53.728Z,50.62
2023-05-02T06:21:53.886Z,50.62
2023-05-02T06:22:54.047Z,50.62
2023-05-02T06:23:54.225Z,50.62
2023-05-02T06:24:54.398Z,50.62
2023-05-02T06:25:54.554Z,45.00
2023-05-02T06:26:54.709Z,45.00
2023-05-02T06:27:54.881Z,45.00
2023-05-02T06:28:55.059Z,45.00
2023-05-02T06:29:55.209Z,45.00
2023-05-02T06:30:55.382Z,45.00
2023-05-02T06:31:55.645Z,45.00
2023-05-02T06:32:55.777Z,50.62
2023-05-02T06:33:55.930Z,45.00
2023-05-02T06:34:56.181Z,50.62
2023-05-02T06:35:56.232Z,50.62
2023-05-02T06:36:56.450Z,50.62
2023-05-02T06:37:56.617Z,50.62
2023-05-02T06:38:56.803Z,50.62
2023-05-02T06:39:56.937Z,50.62
2023-05-02T06:40:57.105Z,56.25
2023-05-02T06:41:57.255Z,56.25
2023-05-02T06:42:57.452Z,56.25
2023-05-02T06:43:57.651Z,56.25
2023-05-02T06:44:57.795Z,56.25
2023-05-02T06:45:57.953Z,50.62
2023-05-02T06:46:58.143Z,56.25
2023-05-02T06:47:58.333Z,50.62
2023-05-02T06:48:58.505Z,50.62
2023-05-02T06:49:59.007Z,39.38
2023-05-02T06:50:58.816Z,33.75
2023-05-02T06:51:58.983Z,28.12
2023-05-02T06:52:59.136Z,22.50
2023-05-02T06:53:59.358Z,16.88
2023-05-02T06:54:59.466Z,16.88
2023-05-02T06:55:59.668Z,11.25
2023-05-02T06:56:59.820Z,11.25
2023-05-02T06:58:00.009Z,11.25
2023-05-02T06:59:00.187Z,16.88
2023-05-02T07:00:00.713Z,16.88
2023-05-02T07:01:00.581Z,16.88
2023-05-02T07:02:01.558Z,22.50
2023-05-02T07:03:00.924Z,22.50
2023-05-02T07:04:01.055Z,28.12
2023-05-02T07:05:01.188Z,28.12
2023-05-02T07:06:01.463Z,28.12
2023-05-02T07:07:01.533Z,28.12
2023-05-02T07:08:01.687Z,28.12
2023-05-02T07:09:01.877Z,33.75
2023-05-02T07:10:02.304Z,33.75
2023-05-02T07:11:02.244Z,33.75
2023-05-02T07:12:04.593Z,33.75
2023-05-02T07:13:02.597Z,33.75
2023-05-02T07:14:02.754Z,33.75
2023-05-02T07:15:02.896Z,33.75
2023-05-02T07:16:03.170Z,39.38
2023-05-02T07:17:03.298Z,39.38
2023-05-02T07:18:03.475Z,45.00
2023-05-02T07:19:03.568Z,45.00
2023-05-02T07:20:04.012Z,45.00
2023-05-02T07:21:03.959Z,50.62
2023-05-02T07:22:04.069Z,56.25
2023-05-02T07:23:04.288Z,56.25
2023-05-02T07:24:04.411Z,56.25
2023-05-02T07:25:04.594Z,56.25
2023-05-02T07:26:06.203Z,56.25
2023-05-02T07:27:04.909Z,56.25
2023-05-02T07:28:05.078Z,50.62
2023-05-02T07:29:05.276Z,56.25
2023-05-02T07:30:05.473Z,56.25
2023-05-02T07:31:05.614Z,56.25
2023-05-02T07:32:05.826Z,56.25
2023-05-02T07:33:05.995Z,50.62
2023-05-02T07:34:06.173Z,45.00
2023-05-02T07:35:06.320Z,39.38
2023-05-02T07:36:06.458Z,39.38
2023-05-02T07:37:06.670Z,39.38
2023-05-02T07:38:06.841Z,39.38
2023-05-02T07:39:07.000Z,39.38
2023-05-02T07:40:07.147Z,33.75
2023-05-02T07:41:07.365Z,33.75
2023-05-02T07:42:07.535Z,28.12
2023-05-02T07:43:09.873Z,28.12
2023-05-02T07:44:07.871Z,28.12
2023-05-02T07:45:08.082Z,33.75
2023-05-02T07:46:08.271Z,33.75
2023-05-02T07:47:08.433Z,33.75
2023-05-02T07:48:08.686Z,33.75
2023-05-02T07:49:08.793Z,33.75
2023-05-02T07:50:08.937Z,33.75
2023-05-02T07:51:09.084Z,33.75
2023-05-02T07:52:09.272Z,33.75
2023-05-02T07:53:09.426Z,33.75
2023-05-02T07:54:09.614Z,39.38
2023-05-02T07:55:09.746Z,39.38
2023-05-02T07:56:09.910Z,45.00
2023-05-02T07:57:10.069Z,45.00
2023-05-02T07:58:10.233Z,45.00
2023-05-02T07:59:10.435Z,50.62
2023-05-02T08:00:10.560Z,50.62
2023-05-02T08:01:10.746Z,50.62
2023-05-02T08:02:10.986Z,45.00
2023-05-02T08:03:11.212Z,50.62
2023-05-02T08:04:11.360Z,50.62
2023-05-02T08:05:11.584Z,50.62
2023-05-02T08:06:11.708Z,50.62
2023-05-02T08:07:11.780Z,50.62
2023-05-02T08:08:11.946Z,50.62
2023-05-02T08:09:12.136Z,50.62
2023-05-02T08:10:12.334Z,50.62
2023-05-02T08:11:12.446Z,50.62
2023-05-02T08:12:12.620Z,50.62
2023-05-02T08:13:12.797Z,56.25
2023-05-02T08:14:12.960Z,56.25
2023-05-02T08:15:13.125Z,56.25
2023-05-02T08:16:13.326Z,56.25
2023-05-02T08:17:13.448Z,56.25
2023-05-02T08:18:13.652Z,61.88
2023-05-02T08:19:13.845Z,61.88
2023-05-02T08:20:13.976Z,78.75
2023-05-02T08:21:14.146Z,67.50
2023-05-02T08:22:14.296Z,67.50
2023-05-02T08:23:14.476Z,73.12
2023-05-02T08:24:14.640Z,73.12
2023-05-02T08:25:14.850Z,95.62
2023-05-02T08:26:14.988Z,73.12
2023-05-02T08:27:15.161Z,73.12
2023-05-02T08:28:15.324Z,73.12
2023-05-02T08:29:15.495Z,78.75
2023-05-02T08:30:15.685Z,101.25
2023-05-02T08:31:15.881Z,78.75
2023-05-02T08:32:16.095Z,95.62
2023-05-02T08:33:16.319Z,90.00
2023-05-02T08:34:16.331Z,101.25
2023-05-02T08:35:16.468Z,78.75
2023-05-02T08:36:16.654Z,78.75
2023-05-02T08:37:16.826Z,106.88
2023-05-02T08:38:16.995Z,118.12
2023-05-02T08:39:17.175Z,101.25
2023-05-02T08:40:22.076Z,95.62
2023-05-02T08:41:18.489Z,101.25
2023-05-02T08:42:17.666Z,101.25
2023-05-02T08:43:17.840Z,101.25
2023-05-02T08:44:18.049Z,112.50
2023-05-02T08:45:18.219Z,101.25
2023-05-02T08:46:18.412Z,106.88
2023-05-02T08:47:18.804Z,90.00
2023-05-02T08:48:18.701Z,78.75
2023-05-02T08:49:18.885Z,78.75
2023-05-02T08:50:19.067Z,73.12
2023-05-02T08:52:19.375Z,67.50
2023-05-02T08:53:19.582Z,61.88
2023-05-02T08:54:19.726Z,61.88
2023-05-02T08:55:19.890Z,61.88
2023-05-02T08:56:20.089Z,61.88
2023-05-02T08:57:20.258Z,61.88
2023-05-02T08:58:20.461Z,61.88
2023-05-02T08:59:20.613Z,61.88
2023-05-02T09:00:20.754Z,61.88
2023-05-02T09:01:20.967Z,61.88
2023-05-02T09:02:21.258Z,61.88
2023-05-02T09:03:23.333Z,61.88
2023-05-02T09:04:21.494Z,61.88
2023-05-02T09:05:21.651Z,61.88
2023-05-02T09:06:21.888Z,56.25
2023-05-02T09:07:21.990Z,50.62
2023-05-02T09:08:22.149Z,45.00
2023-05-02T09:09:22.323Z,45.00
2023-05-02T09:10:22.475Z,45.00
2023-05-02T09:11:22.678Z,45.00
2023-05-02T09:12:22.795Z,39.38
2023-05-02T09:13:22.996Z,39.38
2023-05-02T09:14:23.148Z,33.75
2023-05-02T09:15:23.337Z,33.75
2023-05-02T09:16:23.591Z,33.75
2023-05-02T09:17:23.843Z,33.75
2023-05-02T09:18:23.844Z,33.75
2023-05-02T09:19:24.003Z,33.75
2023-05-02T09:20:24.174Z,33.75
2023-05-02T09:21:24.357Z,39.38
2023-05-02T09:22:24.532Z,39.38
2023-05-02T09:23:24.704Z,45.00
2023-05-02T09:24:24.848Z,45.00
2023-05-02T09:25:25.034Z,50.62
2023-05-02T09:26:25.202Z,50.62
2023-05-02T09:27:25.367Z,56.25
2023-05-02T09:28:25.544Z,56.25
2023-05-02T09:29:25.716Z,56.25
2023-05-02T09:30:25.934Z,61.88
2023-05-02T09:32:26.268Z,56.25
2023-05-02T09:33:26.416Z,56.25
2023-05-02T09:34:26.567Z,61.88
2023-05-02T09:35:26.757Z,61.88
2023-05-02T09:36:26.930Z,61.88
2023-05-02T09:37:27.097Z,56.25
2023-05-02T09:38:27.278Z,50.62
2023-05-02T09:39:27.467Z,45.00
2023-05-02T09:40:27.657Z,39.38
2023-05-02T09:41:27.793Z,39.38
2023-05-02T09:42:27.982Z,33.75
2023-05-02T09:43:28.188Z,28.12
2023-05-02T09:44:28.328Z,28.12
2023-05-02T09:45:28.498Z,22.50
2023-05-02T09:46:28.735Z,22.50
2023-05-02T09:47:28.862Z,28.12
2023-05-02T09:48:29.019Z,28.12
2023-05-02T09:49:29.194Z,33.75
2023-05-02T09:50:29.351Z,39.38
2023-05-02T09:51:29.531Z,39.38
2023-05-02T09:52:29.686Z,39.38
2023-05-02T09:53:29.871Z,39.38
2023-05-02T09:54:30.047Z,39.38
2023-05-02T09:55:30.271Z,33.75
2023-05-02T09:56:30.397Z,33.75
2023-05-02T09:57:30.536Z,28.12
2023-05-02T09:58:30.710Z,22.50
2023-05-02T09:59:30.863Z,22.50
2023-05-02T10:00:31.033Z,22.50
2023-05-02T10:01:31.269Z,16.88
2023-05-02T10:02:31.401Z,16.88
2023-05-02T10:03:31.561Z,16.88
2023-05-02T10:04:31.942Z,11.25
2023-05-02T10:05:31.918Z,11.25
2023-05-02T10:06:32.078Z,11.25
2023-05-02T10:07:32.221Z,11.25
2023-05-02T10:08:32.405Z,11.25
2023-05-02T10:09:32.847Z,11.25
2023-05-02T10:10:32.764Z,11.25
2023-05-02T10:11:32.961Z,11.25
2023-05-02T10:12:33.139Z,16.88
2023-05-02T10:13:33.326Z,22.50
2023-05-02T10:14:33.505Z,22.50
2023-05-02T10:15:33.699Z,22.50
2023-05-02T10:16:33.882Z,16.88
2023-05-02T10:17:34.091Z,16.88
2023-05-02T10:18:34.174Z,16.88
2023-05-02T10:19:34.341Z,16.88
2023-05-02T10:20:34.502Z,16.88
2023-05-02T10:21:34.685Z,16.88
2023-05-02T10:22:34.843Z,22.50
2023-05-02T10:23:34.993Z,22.50
2023-05-02T10:24:35.135Z,28.12
2023-05-02T10:25:35.320Z,22.50
2023-05-02T10:26:35.491Z,22.50
2023-05-02T10:27:35.657Z,28.12
2023-05-02T10:28:35.844Z,28.12
2023-05-02T10:29:36.004Z,28.12
2023-05-02T10:30:36.179Z,33.75
2023-05-02T10:31:36.391Z,33.75
2023-05-02T10:32:36.502Z,33.75
2023-05-02T10:33:36.664Z,33.75
2023-05-02T10:34:36.862Z,28.12
2023-05-02T10:35:37.026Z,28.12
2023-05-02T10:36:37.197Z,28.12
2023-05-02T10:37:37.338Z,28.12
2023-05-02T10:38:37.518Z,28.12
2023-05-02T10:39:37.680Z,22.50
2023-05-02T10:40:37.841Z,22.50
2023-05-02T10:41:38.010Z,28.12
2023-05-02T10:42:38.176Z,28.12
2023-05-02T10:43:38.332Z,33.75
2023-05-02T10:44:38.632Z,33.75
2023-05-02T10:45:38.703Z,33.75
2023-05-02T10:46:38.888Z,33.75
2023-05-02T10:47:39.104Z,33.75
2023-05-02T10:48:39.216Z,39.38
2023-05-02T10:49:39.401Z,39.38
2023-05-02T10:50:39.547Z,39.38
2023-05-02T10:51:39.761Z,45.00
2023-05-02T10:52:39.912Z,45.00
2023-05-02T10:53:40.075Z,45.00
2023-05-02T10:54:40.244Z,39.38
2023-05-02T10:55:40.396Z,39.38
2023-05-02T10:56:40.558Z,33.75
2023-05-02T10:57:40.737Z,33.75
2023-05-02T10:58:40.915Z,28.12
2023-05-02T10:59:41.091Z,28.12
2023-05-02T11:00:41.291Z,28.12
2023-05-02T11:01:41.434Z,28.12
2023-05-02T11:02:41.704Z,22.50
2023-05-02T11:03:41.816Z,22.50
2023-05-02T11:04:41.922Z,22.50
2023-05-02T11:05:42.101Z,22.50
2023-05-02T11:06:42.306Z,22.50
2023-05-02T11:07:42.418Z,22.50
2023-05-02T11:08:42.605Z,28.12
2023-05-02T11:09:42.775Z,28.12
2023-05-02T11:10:42.944Z,33.75
2023-05-02T11:11:43.595Z,33.75
2023-05-02T11:12:43.306Z,33.75
2023-05-02T11:13:43.456Z,33.75
2023-05-02T11:14:43.664Z,39.38
2023-05-02T11:15:43.799Z,45.00
2023-05-02T11:16:44.019Z,45.00
2023-05-02T11:17:44.167Z,50.62
2023-05-02T11:18:44.316Z,50.62
2023-05-02T11:19:44.488Z,50.62
2023-05-02T11:20:44.646Z,56.25
2023-05-02T11:21:44.807Z,50.62
2023-05-02T11:22:44.963Z,45.00
2023-05-02T11:23:45.145Z,45.00
2023-05-02T11:24:45.318Z,45.00
2023-05-02T11:25:45.522Z,45.00
2023-05-02T11:26:45.697Z,50.62
2023-05-02T11:27:45.877Z,50.62
2023-05-02T11:28:46.048Z,50.62
2023-05-02T11:29:46.231Z,56.25
2023-05-02T11:30:46.391Z,61.88
2023-05-02T11:31:46.628Z,61.88
2023-05-02T11:32:46.904Z,61.88
2023-05-02T11:33:46.902Z,61.88
2023-05-02T11:34:47.077Z,61.88
2023-05-02T11:35:47.251Z,61.88
2023-05-02T11:36:47.414Z,61.88
2023-05-02T11:37:47.594Z,61.88
2023-05-02T11:38:47.736Z,61.88
2023-05-02T11:39:47.908Z,61.88
2023-05-02T11:40:48.078Z,61.88
2023-05-02T11:41:48.254Z,67.50
2023-05-02T11:42:48.443Z,61.88
2023-05-02T11:43:48.615Z,61.88
2023-05-02T11:44:48.797Z,61.88
2023-05-02T11:45:49.021Z,61.88
2023-05-02T11:46:49.372Z,61.88
2023-05-02T11:47:49.374Z,61.88
2023-05-02T11:48:49.513Z,61.88
2023-05-02T11:49:49.674Z,61.88
2023-05-02T11:50:50.686Z,61.88
2023-05-02T11:51:50.020Z,61.88
2023-05-02T11:52:50.213Z,56.25
2023-05-02T11:53:50.358Z,56.25
2023-05-02T11:54:50.561Z,56.25
2023-05-02T11:55:50.714Z,56.25
2023-05-02T11:56:50.882Z,61.88
2023-05-02T11:57:51.084Z,61.88
2023-05-02T11:58:51.221Z,61.88
2023-05-02T11:59:51.395Z,67.50
2023-05-02T12:00:51.574Z,67.50
2023-05-02T12:01:51.770Z,67.50
2023-05-02T12:02:51.985Z,67.50
2023-05-02T12:03:52.076Z,67.50
2023-05-02T12:04:52.226Z,67.50
2023-05-02T12:05:52.459Z,67.50
2023-05-02T12:06:52.716Z,61.88
2023-05-02T12:07:52.758Z,61.88
2023-05-02T12:08:52.942Z,67.50
2023-05-02T12:09:53.101Z,73.12
2023-05-02T12:10:53.277Z,84.38
2023-05-02T12:11:53.473Z,95.62
2023-05-02T12:12:53.632Z,106.88
2023-05-02T12:13:53.850Z,118.12
2023-05-02T12:14:53.944Z,118.12
2023-05-02T12:15:54.175Z,129.38
2023-05-02T12:16:54.329Z,118.12
2023-05-02T12:17:54.544Z,118.12
2023-05-02T12:18:54.632Z,129.38
2023-05-02T12:19:54.817Z,135.00
2023-05-02T12:20:54.996Z,151.88
2023-05-02T12:21:55.165Z,146.25
2023-05-02T12:22:55.332Z,123.75
2023-05-02T12:23:55.485Z,118.12
2023-05-02T12:24:55.653Z,101.25
2023-05-02T12:25:55.860Z,95.62
2023-05-02T12:26:56.021Z,90.00
2023-05-02T12:27:56.214Z,90.00
2023-05-02T12:28:56.391Z,90.00
2023-05-02T12:29:56.578Z,95.62
2023-05-02T12:30:56.763Z,84.38
2023-05-02T12:31:57.017Z,84.38
2023-05-02T12:32:57.128Z,84.38
2023-05-02T12:33:57.324Z,84.38
2023-05-02T12:34:57.427Z,90.00
2023-05-02T12:35:57.584Z,90.00
2023-05-02T12:36:57.767Z,95.62
2023-05-02T12:37:57.918Z,101.25
2023-05-02T12:38:58.104Z,151.88
2023-05-02T12:39:58.297Z,168.75
2023-05-02T12:40:58.429Z,112.50
2023-05-02T12:41:58.589Z,151.88
2023-05-02T12:42:58.764Z,90.00
2023-05-02T12:43:58.937Z,157.50
2023-05-02T12:44:59.083Z,151.88
2023-05-02T12:45:59.243Z,101.25
2023-05-02T12:46:59.514Z,140.62
2023-05-02T12:47:59.639Z,118.12
2023-05-02T12:48:59.865Z,174.38
2023-05-02T12:50:00.104Z,168.75
2023-05-02T12:51:00.096Z,174.38
2023-05-02T12:52:00.272Z,106.88
2023-05-02T12:53:00.470Z,95.62
2023-05-02T12:54:00.657Z,123.75
2023-05-02T12:55:00.791Z,78.75
2023-05-02T12:56:00.967Z,73.12
2023-05-02T12:57:01.121Z,73.12
2023-05-02T12:58:01.300Z,73.12
2023-05-02T12:59:01.685Z,78.75
2023-05-02T13:00:01.921Z,84.38
2023-05-02T13:01:01.849Z,90.00
2023-05-02T13:02:01.999Z,174.38
2023-05-02T13:03:02.296Z,106.88
2023-05-02T13:04:02.467Z,123.75
2023-05-02T13:05:02.534Z,106.88